sensor_id;sensor_type;location;lat;lon;timestamp;P1;durP1;ratioP1;P2;durP2;ratioP2
40793;SDS011;26502;51.886;15.604;2024-01-15T00:00:11;31.50;;;15.80;;
40793;SDS011;26502;51.886;15.604;2024-01-15T00:05:58;21.10;;;12.30;;
40793;SDS011;26502;51.886;15.604;2024-01-15T00:11:24;21.60;;;12.50;;
40793;SDS011;26502;51.886;15.604;2024-01-15T00:16:50;18.70;;;11.40;;
40793;SDS011;26502;51.886;15.604;2024-01-15T00:22:20;20.80;;;13.00;;
40793;SDS011;26502;51.886;15.604;2024-01-15T00:27:48;27.60;;;16.40;;
40793;SDS011;26502;51.886;15.604;2024-01-15T00:33:14;20.00;;;12.20;;
40793;SDS011;26502;51.886;15.604;2024-01-15T00:38:40;17.60;;;10.50;;
40793;SDS011;26502;51.886;15.604;2024-01-15T00:44:05;19.50;;;11.20;;
40793;SDS011;26502;51.886;15.604;2024-01-15T00:49:31;18.80;;;10.70;;
40793;SDS011;26502;51.886;15.604;2024-01-15T00:54:57;17.20;;;8.90;;
40793;SDS011;26502;51.886;15.604;2024-01-15T01:00:23;19.80;;;10.60;;
40793;SDS011;26502;51.886;15.604;2024-01-15T01:05:49;16.00;;;8.70;;
40793;SDS011;26502;51.886;15.604;2024-01-15T01:11:15;10.50;;;6.30;;
40793;SDS011;26502;51.886;15.604;2024-01-15T01:16:41;15.40;;;9.00;;
40793;SDS011;26502;51.886;15.604;2024-01-15T01:22:08;17.50;;;10.00;;
40793;SDS011;26502;51.886;15.604;2024-01-15T01:27:34;16.20;;;8.70;;
40793;SDS011;26502;51.886;15.604;2024-01-15T01:33:00;15.30;;;9.40;;
40793;SDS011;26502;51.886;15.604;2024-01-15T01:38:26;16.50;;;9.80;;
40793;SDS011;26502;51.886;15.604;2024-01-15T01:43:52;16.70;;;10.50;;
40793;SDS011;26502;51.886;15.604;2024-01-15T01:49:18;14.60;;;9.80;;
40793;SDS011;26502;51.886;15.604;2024-01-15T01:54:44;16.70;;;8.40;;
40793;SDS011;26502;51.886;15.604;2024-01-15T02:00:12;15.90;;;8.90;;
40793;SDS011;26502;51.886;15.604;2024-01-15T02:05:39;14.30;;;9.10;;
40793;SDS011;26502;51.886;15.604;2024-01-15T02:11:07;14.70;;;8.40;;
40793;SDS011;26502;51.886;15.604;2024-01-15T02:16:33;9.90;;;5.40;;
40793;SDS011;26502;51.886;15.604;2024-01-15T02:21:59;16.30;;;8.60;;
40793;SDS011;26502;51.886;15.604;2024-01-15T02:27:25;8.80;;;5.80;;
40793;SDS011;26502;51.886;15.604;2024-01-15T02:32:51;15.00;;;8.60;;
40793;SDS011;26502;51.886;15.604;2024-01-15T02:38:17;13.50;;;7.90;;
40793;SDS011;26502;51.886;15.604;2024-01-15T02:43:43;13.00;;;8.60;;
40793;SDS011;26502;51.886;15.604;2024-01-15T02:49:09;12.30;;;8.40;;
40793;SDS011;26502;51.886;15.604;2024-01-15T02:54:35;10.00;;;6.60;;
40793;SDS011;26502;51.886;15.604;2024-01-15T03:00:01;9.70;;;6.20;;
40793;SDS011;26502;51.886;15.604;2024-01-15T03:05:30;12.10;;;8.30;;
40793;SDS011;26502;51.886;15.604;2024-01-15T03:10:56;11.90;;;7.00;;
40793;SDS011;26502;51.886;15.604;2024-01-15T03:16:24;13.80;;;8.00;;
40793;SDS011;26502;51.886;15.604;2024-01-15T03:21:50;13.40;;;7.40;;
40793;SDS011;26502;51.886;15.604;2024-01-15T03:27:16;16.70;;;8.60;;
40793;SDS011;26502;51.886;15.604;2024-01-15T03:32:43;11.50;;;6.90;;
40793;SDS011;26502;51.886;15.604;2024-01-15T03:38:10;13.20;;;7.60;;
40793;SDS011;26502;51.886;15.604;2024-01-15T03:43:36;12.80;;;7.50;;
40793;SDS011;26502;51.886;15.604;2024-01-15T03:49:03;10.30;;;5.20;;
40793;SDS011;26502;51.886;15.604;2024-01-15T03:54:29;15.90;;;9.40;;
40793;SDS011;26502;51.886;15.604;2024-01-15T03:59:55;13.90;;;8.60;;
40793;SDS011;26502;51.886;15.604;2024-01-15T04:05:21;13.60;;;6.40;;
40793;SDS011;26502;51.886;15.604;2024-01-15T04:10:47;12.70;;;8.10;;
40793;SDS011;26502;51.886;15.604;2024-01-15T04:16:13;14.00;;;8.30;;
40793;SDS011;26502;51.886;15.604;2024-01-15T04:21:40;9.20;;;5.70;;
40793;SDS011;26502;51.886;15.604;2024-01-15T04:27:06;12.00;;;6.90;;
40793;SDS011;26502;51.886;15.604;2024-01-15T04:32:32;12.60;;;7.90;;
40793;SDS011;26502;51.886;15.604;2024-01-15T04:37:58;14.10;;;8.40;;
40793;SDS011;26502;51.886;15.604;2024-01-15T04:43:24;13.90;;;8.00;;
40793;SDS011;26502;51.886;15.604;2024-01-15T04:48:51;8.40;;;5.70;;
40793;SDS011;26502;51.886;15.604;2024-01-15T04:54:16;12.80;;;8.40;;
40793;SDS011;26502;51.886;15.604;2024-01-15T04:59:43;14.50;;;8.00;;
40793;SDS011;26502;51.886;15.604;2024-01-15T05:05:10;13.40;;;7.90;;
40793;SDS011;26502;51.886;15.604;2024-01-15T05:10:38;13.20;;;8.70;;
40793;SDS011;26502;51.886;15.604;2024-01-15T05:16:05;15.70;;;8.90;;
40793;SDS011;26502;51.886;15.604;2024-01-15T05:21:31;17.00;;;5.50;;
40793;SDS011;26502;51.886;15.604;2024-01-15T05:26:57;20.70;;;9.70;;
40793;SDS011;26502;51.886;15.604;2024-01-15T05:32:23;23.10;;;9.70;;
40793;SDS011;26502;51.886;15.604;2024-01-15T05:37:49;29.80;;;12.00;;
40793;SDS011;26502;51.886;15.604;2024-01-15T05:43:15;14.10;;;7.00;;
40793;SDS011;26502;51.886;15.604;2024-01-15T05:48:41;41.70;;;19.50;;
40793;SDS011;26502;51.886;15.604;2024-01-15T05:54:07;23.30;;;13.40;;
40793;SDS011;26502;51.886;15.604;2024-01-15T05:59:34;19.20;;;9.90;;
40793;SDS011;26502;51.886;15.604;2024-01-15T06:05:01;42.70;;;32.90;;
40793;SDS011;26502;51.886;15.604;2024-01-15T06:10:27;12.70;;;6.00;;
40793;SDS011;26502;51.886;15.604;2024-01-15T06:15:53;12.90;;;4.50;;
40793;SDS011;26502;51.886;15.604;2024-01-15T06:21:19;11.50;;;6.10;;
40793;SDS011;26502;51.886;15.604;2024-01-15T06:26:47;25.20;;;14.20;;
40793;SDS011;26502;51.886;15.604;2024-01-15T06:32:13;12.80;;;6.70;;
40793;SDS011;26502;51.886;15.604;2024-01-15T06:37:38;9.40;;;5.60;;
40793;SDS011;26502;51.886;15.604;2024-01-15T06:43:05;25.90;;;12.40;;
40793;SDS011;26502;51.886;15.604;2024-01-15T06:48:31;25.10;;;8.20;;
40793;SDS011;26502;51.886;15.604;2024-01-15T06:53:57;49.60;;;20.30;;
40793;SDS011;26502;51.886;15.604;2024-01-15T06:59:23;37.00;;;18.70;;
40793;SDS011;26502;51.886;15.604;2024-01-15T07:04:51;17.20;;;9.00;;
40793;SDS011;26502;51.886;15.604;2024-01-15T07:10:17;27.90;;;14.60;;
40793;SDS011;26502;51.886;15.604;2024-01-15T07:15:44;13.60;;;6.90;;
40793;SDS011;26502;51.886;15.604;2024-01-15T07:21:10;14.80;;;7.80;;
40793;SDS011;26502;51.886;15.604;2024-01-15T07:26:36;14.90;;;5.70;;
40793;SDS011;26502;51.886;15.604;2024-01-15T07:32:03;14.00;;;7.60;;
40793;SDS011;26502;51.886;15.604;2024-01-15T07:37:30;15.90;;;10.00;;
40793;SDS011;26502;51.886;15.604;2024-01-15T07:42:57;16.20;;;9.50;;
40793;SDS011;26502;51.886;15.604;2024-01-15T07:48:23;13.90;;;8.80;;
40793;SDS011;26502;51.886;15.604;2024-01-15T07:53:49;15.70;;;9.00;;
40793;SDS011;26502;51.886;15.604;2024-01-15T07:59:14;10.80;;;6.50;;
40793;SDS011;26502;51.886;15.604;2024-01-15T08:04:41;8.00;;;3.50;;
40793;SDS011;26502;51.886;15.604;2024-01-15T08:10:07;16.30;;;7.00;;
40793;SDS011;26502;51.886;15.604;2024-01-15T08:15:33;10.80;;;7.10;;
40793;SDS011;26502;51.886;15.604;2024-01-15T08:21:00;10.50;;;5.50;;
40793;SDS011;26502;51.886;15.604;2024-01-15T08:26:26;11.00;;;4.90;;
40793;SDS011;26502;51.886;15.604;2024-01-15T08:31:52;24.40;;;10.10;;
40793;SDS011;26502;51.886;15.604;2024-01-15T08:37:18;13.30;;;6.50;;
40793;SDS011;26502;51.886;15.604;2024-01-15T08:42:44;17.60;;;7.20;;
40793;SDS011;26502;51.886;15.604;2024-01-15T08:48:11;19.90;;;8.50;;
40793;SDS011;26502;51.886;15.604;2024-01-15T08:53:37;9.70;;;5.80;;
40793;SDS011;26502;51.886;15.604;2024-01-15T08:59:03;11.00;;;4.70;;
40793;SDS011;26502;51.886;15.604;2024-01-15T09:04:29;12.50;;;5.10;;
40793;SDS011;26502;51.886;15.604;2024-01-15T09:09:55;9.00;;;4.60;;
40793;SDS011;26502;51.886;15.604;2024-01-15T09:15:22;9.10;;;5.20;;
40793;SDS011;26502;51.886;15.604;2024-01-15T09:20:48;9.80;;;5.60;;
40793;SDS011;26502;51.886;15.604;2024-01-15T09:26:14;11.00;;;6.20;;
40793;SDS011;26502;51.886;15.604;2024-01-15T09:31:40;11.40;;;4.10;;
40793;SDS011;26502;51.886;15.604;2024-01-15T09:37:06;9.60;;;2.90;;
40793;SDS011;26502;51.886;15.604;2024-01-15T09:42:32;9.90;;;4.40;;
40793;SDS011;26502;51.886;15.604;2024-01-15T09:47:59;14.50;;;7.00;;
40793;SDS011;26502;51.886;15.604;2024-01-15T09:53:25;24.00;;;5.90;;
40793;SDS011;26502;51.886;15.604;2024-01-15T09:58:53;8.20;;;3.60;;
40793;SDS011;26502;51.886;15.604;2024-01-15T10:04:20;32.70;;;17.10;;
40793;SDS011;26502;51.886;15.604;2024-01-15T10:09:46;24.60;;;10.70;;
40793;SDS011;26502;51.886;15.604;2024-01-15T10:15:12;10.20;;;4.70;;
40793;SDS011;26502;51.886;15.604;2024-01-15T10:20:38;37.20;;;13.90;;
40793;SDS011;26502;51.886;15.604;2024-01-15T10:26:05;75.70;;;23.40;;
40793;SDS011;26502;51.886;15.604;2024-01-15T10:31:31;28.40;;;8.90;;
40793;SDS011;26502;51.886;15.604;2024-01-15T10:36:58;41.00;;;13.50;;
40793;SDS011;26502;51.886;15.604;2024-01-15T10:42:25;14.20;;;7.20;;
40793;SDS011;26502;51.886;15.604;2024-01-15T10:47:51;13.30;;;6.80;;
40793;SDS011;26502;51.886;15.604;2024-01-15T10:53:21;24.80;;;11.70;;
40793;SDS011;26502;51.886;15.604;2024-01-15T10:58:51;15.50;;;8.50;;
40793;SDS011;26502;51.886;15.604;2024-01-15T11:04:18;6.20;;;3.40;;
40793;SDS011;26502;51.886;15.604;2024-01-15T11:09:45;12.10;;;6.30;;
40793;SDS011;26502;51.886;15.604;2024-01-15T11:15:15;10.60;;;4.00;;
40793;SDS011;26502;51.886;15.604;2024-01-15T11:20:51;12.80;;;5.80;;
40793;SDS011;26502;51.886;15.604;2024-01-15T11:26:46;3.70;;;3.10;;
40793;SDS011;26502;51.886;15.604;2024-01-15T11:32:12;9.30;;;5.60;;
40793;SDS011;26502;51.886;15.604;2024-01-15T11:43:24;10.80;;;4.50;;
40793;SDS011;26502;51.886;15.604;2024-01-15T11:48:50;3.00;;;2.40;;
40793;SDS011;26502;51.886;15.604;2024-01-15T11:54:27;9.00;;;3.90;;
40793;SDS011;26502;51.886;15.604;2024-01-15T11:59:57;9.10;;;3.60;;
40793;SDS011;26502;51.886;15.604;2024-01-15T12:05:23;4.60;;;2.50;;
40793;SDS011;26502;51.886;15.604;2024-01-15T12:10:49;9.10;;;3.50;;
40793;SDS011;26502;51.886;15.604;2024-01-15T12:16:15;19.20;;;3.90;;
40793;SDS011;26502;51.886;15.604;2024-01-15T12:21:41;10.80;;;4.00;;
40793;SDS011;26502;51.886;15.604;2024-01-15T12:27:09;14.20;;;5.00;;
40793;SDS011;26502;51.886;15.604;2024-01-15T12:32:35;5.80;;;3.20;;
40793;SDS011;26502;51.886;15.604;2024-01-15T12:38:02;10.40;;;4.80;;
40793;SDS011;26502;51.886;15.604;2024-01-15T12:43:29;10.00;;;6.00;;
40793;SDS011;26502;51.886;15.604;2024-01-15T12:49:10;7.80;;;2.70;;
40793;SDS011;26502;51.886;15.604;2024-01-15T12:54:43;11.10;;;4.90;;
40793;SDS011;26502;51.886;15.604;2024-01-15T13:00:10;9.30;;;4.50;;
40793;SDS011;26502;51.886;15.604;2024-01-15T13:05:38;3.20;;;1.70;;
40793;SDS011;26502;51.886;15.604;2024-01-15T13:11:07;2.70;;;2.10;;
40793;SDS011;26502;51.886;15.604;2024-01-15T13:16:33;7.90;;;3.80;;
40793;SDS011;26502;51.886;15.604;2024-01-15T13:22:00;7.10;;;3.20;;
40793;SDS011;26502;51.886;15.604;2024-01-15T13:27:30;9.30;;;3.50;;
40793;SDS011;26502;51.886;15.604;2024-01-15T13:32:57;13.20;;;4.50;;
40793;SDS011;26502;51.886;15.604;2024-01-15T13:38:27;9.60;;;4.10;;
40793;SDS011;26502;51.886;15.604;2024-01-15T13:43:59;9.90;;;3.90;;
40793;SDS011;26502;51.886;15.604;2024-01-15T13:49:25;8.10;;;3.30;;
40793;SDS011;26502;51.886;15.604;2024-01-15T13:54:51;7.30;;;3.50;;
40793;SDS011;26502;51.886;15.604;2024-01-15T14:00:17;5.80;;;3.60;;
40793;SDS011;26502;51.886;15.604;2024-01-15T14:05:44;5.30;;;3.10;;
40793;SDS011;26502;51.886;15.604;2024-01-15T14:11:12;4.80;;;2.70;;
40793;SDS011;26502;51.886;15.604;2024-01-15T14:16:38;7.20;;;3.90;;
40793;SDS011;26502;51.886;15.604;2024-01-15T14:22:04;4.60;;;2.80;;
40793;SDS011;26502;51.886;15.604;2024-01-15T14:27:31;7.80;;;3.50;;
40793;SDS011;26502;51.886;15.604;2024-01-15T14:32:57;6.00;;;3.10;;
40793;SDS011;26502;51.886;15.604;2024-01-15T14:38:24;6.90;;;3.60;;
40793;SDS011;26502;51.886;15.604;2024-01-15T14:43:53;9.80;;;4.20;;
40793;SDS011;26502;51.886;15.604;2024-01-15T14:49:24;5.70;;;2.30;;
40793;SDS011;26502;51.886;15.604;2024-01-15T14:54:50;7.00;;;4.00;;
40793;SDS011;26502;51.886;15.604;2024-01-15T15:00:16;9.20;;;4.50;;
40793;SDS011;26502;51.886;15.604;2024-01-15T15:05:42;7.10;;;2.60;;
40793;SDS011;26502;51.886;15.604;2024-01-15T15:11:08;6.40;;;3.60;;
40793;SDS011;26502;51.886;15.604;2024-01-15T15:16:35;6.90;;;3.70;;
40793;SDS011;26502;51.886;15.604;2024-01-15T15:22:01;8.00;;;3.00;;
40793;SDS011;26502;51.886;15.604;2024-01-15T15:27:27;11.40;;;4.20;;
40793;SDS011;26502;51.886;15.604;2024-01-15T15:32:53;4.00;;;2.70;;
40793;SDS011;26502;51.886;15.604;2024-01-15T15:38:19;6.00;;;3.70;;
40793;SDS011;26502;51.886;15.604;2024-01-15T15:43:45;12.80;;;5.90;;
40793;SDS011;26502;51.886;15.604;2024-01-15T15:49:11;8.40;;;5.10;;
40793;SDS011;26502;51.886;15.604;2024-01-15T15:54:38;7.80;;;3.10;;
40793;SDS011;26502;51.886;15.604;2024-01-15T16:00:06;4.00;;;2.80;;
40793;SDS011;26502;51.886;15.604;2024-01-15T16:05:37;7.30;;;3.30;;
40793;SDS011;26502;51.886;15.604;2024-01-15T16:11:03;3.80;;;2.40;;
40793;SDS011;26502;51.886;15.604;2024-01-15T16:16:30;6.00;;;3.30;;
40793;SDS011;26502;51.886;15.604;2024-01-15T16:21:56;15.00;;;10.30;;
40793;SDS011;26502;51.886;15.604;2024-01-15T16:27:23;7.00;;;5.50;;
40793;SDS011;26502;51.886;15.604;2024-01-15T16:32:49;13.90;;;8.30;;
40793;SDS011;26502;51.886;15.604;2024-01-15T16:38:15;13.20;;;7.10;;
40793;SDS011;26502;51.886;15.604;2024-01-15T16:43:42;7.10;;;4.30;;
40793;SDS011;26502;51.886;15.604;2024-01-15T16:49:08;15.20;;;10.00;;
40793;SDS011;26502;51.886;15.604;2024-01-15T16:54:34;11.30;;;6.30;;
40793;SDS011;26502;51.886;15.604;2024-01-15T17:00:00;19.80;;;10.00;;
40793;SDS011;26502;51.886;15.604;2024-01-15T17:05:29;19.20;;;7.40;;
40793;SDS011;26502;51.886;15.604;2024-01-15T17:10:55;37.30;;;10.60;;
40793;SDS011;26502;51.886;15.604;2024-01-15T17:16:21;29.30;;;11.20;;
40793;SDS011;26502;51.886;15.604;2024-01-15T17:21:47;18.30;;;10.30;;
40793;SDS011;26502;51.886;15.604;2024-01-15T17:27:16;28.30;;;12.20;;
40793;SDS011;26502;51.886;15.604;2024-01-15T17:32:43;15.60;;;5.10;;
40793;SDS011;26502;51.886;15.604;2024-01-15T17:38:09;18.70;;;9.40;;
40793;SDS011;26502;51.886;15.604;2024-01-15T17:43:35;19.20;;;9.70;;
40793;SDS011;26502;51.886;15.604;2024-01-15T17:49:01;15.40;;;7.70;;
40793;SDS011;26502;51.886;15.604;2024-01-15T17:54:27;7.20;;;3.80;;
40793;SDS011;26502;51.886;15.604;2024-01-15T17:59:53;43.60;;;37.50;;
40793;SDS011;26502;51.886;15.604;2024-01-15T18:05:20;8.90;;;6.20;;
40793;SDS011;26502;51.886;15.604;2024-01-15T18:10:46;17.50;;;9.20;;
40793;SDS011;26502;51.886;15.604;2024-01-15T18:16:13;25.10;;;11.70;;
40793;SDS011;26502;51.886;15.604;2024-01-15T18:21:46;42.00;;;15.00;;
40793;SDS011;26502;51.886;15.604;2024-01-15T18:33:18;9.50;;;5.50;;
40793;SDS011;26502;51.886;15.604;2024-01-15T18:38:45;26.50;;;10.90;;
40793;SDS011;26502;51.886;15.604;2024-01-15T18:44:12;14.10;;;6.70;;
40793;SDS011;26502;51.886;15.604;2024-01-15T18:49:38;16.40;;;8.50;;
40793;SDS011;26502;51.886;15.604;2024-01-15T18:55:06;12.40;;;5.70;;
40793;SDS011;26502;51.886;15.604;2024-01-15T19:00:36;26.30;;;11.20;;
40793;SDS011;26502;51.886;15.604;2024-01-15T19:06:02;18.90;;;7.70;;
40793;SDS011;26502;51.886;15.604;2024-01-15T19:11:31;10.40;;;4.00;;
40793;SDS011;26502;51.886;15.604;2024-01-15T19:16:56;4.00;;;2.50;;
40793;SDS011;26502;51.886;15.604;2024-01-15T19:22:25;5.40;;;2.80;;
40793;SDS011;26502;51.886;15.604;2024-01-15T19:27:50;8.10;;;6.60;;
40793;SDS011;26502;51.886;15.604;2024-01-15T19:33:17;66.30;;;21.10;;
40793;SDS011;26502;51.886;15.604;2024-01-15T19:38:43;61.90;;;17.40;;
40793;SDS011;26502;51.886;15.604;2024-01-15T19:44:09;18.40;;;8.40;;
40793;SDS011;26502;51.886;15.604;2024-01-15T19:49:35;34.40;;;11.80;;
40793;SDS011;26502;51.886;15.604;2024-01-15T19:55:06;34.40;;;10.50;;
40793;SDS011;26502;51.886;15.604;2024-01-15T20:00:33;22.40;;;10.10;;
40793;SDS011;26502;51.886;15.604;2024-01-15T20:06:00;25.90;;;8.70;;
40793;SDS011;26502;51.886;15.604;2024-01-15T20:11:33;60.50;;;17.60;;
40793;SDS011;26502;51.886;15.604;2024-01-15T20:16:59;26.90;;;8.90;;
40793;SDS011;26502;51.886;15.604;2024-01-15T20:22:28;30.10;;;10.80;;
40793;SDS011;26502;51.886;15.604;2024-01-15T20:27:54;17.90;;;8.50;;
40793;SDS011;26502;51.886;15.604;2024-01-15T20:33:23;9.30;;;3.70;;
40793;SDS011;26502;51.886;15.604;2024-01-15T20:38:49;10.90;;;4.50;;
40793;SDS011;26502;51.886;15.604;2024-01-15T20:44:16;16.80;;;6.20;;
40793;SDS011;26502;51.886;15.604;2024-01-15T20:49:46;9.80;;;3.50;;
40793;SDS011;26502;51.886;15.604;2024-01-15T20:55:13;10.70;;;3.50;;
40793;SDS011;26502;51.886;15.604;2024-01-15T21:00:39;9.70;;;3.30;;
40793;SDS011;26502;51.886;15.604;2024-01-15T21:06:05;10.20;;;3.50;;
40793;SDS011;26502;51.886;15.604;2024-01-15T21:11:31;6.40;;;2.60;;
40793;SDS011;26502;51.886;15.604;2024-01-15T21:16:57;7.10;;;2.90;;
40793;SDS011;26502;51.886;15.604;2024-01-15T21:22:23;8.10;;;2.50;;
40793;SDS011;26502;51.886;15.604;2024-01-15T21:27:51;4.70;;;2.20;;
40793;SDS011;26502;51.886;15.604;2024-01-15T21:33:17;8.10;;;2.80;;
40793;SDS011;26502;51.886;15.604;2024-01-15T21:38:43;23.70;;;8.10;;
40793;SDS011;26502;51.886;15.604;2024-01-15T21:44:09;19.60;;;8.10;;
40793;SDS011;26502;51.886;15.604;2024-01-15T21:49:35;12.30;;;3.80;;
40793;SDS011;26502;51.886;15.604;2024-01-15T21:55:02;8.80;;;4.20;;
40793;SDS011;26502;51.886;15.604;2024-01-15T22:00:29;7.00;;;3.30;;
40793;SDS011;26502;51.886;15.604;2024-01-15T22:05:55;13.10;;;7.00;;
40793;SDS011;26502;51.886;15.604;2024-01-15T22:11:21;12.90;;;7.90;;
40793;SDS011;26502;51.886;15.604;2024-01-15T22:16:47;38.30;;;24.80;;
40793;SDS011;26502;51.886;15.604;2024-01-15T22:22:13;29.70;;;19.40;;
40793;SDS011;26502;51.886;15.604;2024-01-15T22:27:39;57.90;;;21.80;;
40793;SDS011;26502;51.886;15.604;2024-01-15T22:33:05;61.70;;;24.50;;
40793;SDS011;26502;51.886;15.604;2024-01-15T22:38:31;40.00;;;17.80;;
40793;SDS011;26502;51.886;15.604;2024-01-15T22:43:57;28.90;;;13.30;;
40793;SDS011;26502;51.886;15.604;2024-01-15T22:49:23;17.10;;;6.40;;
40793;SDS011;26502;51.886;15.604;2024-01-15T22:54:53;16.20;;;6.30;;
40793;SDS011;26502;51.886;15.604;2024-01-15T23:00:29;120.20;;;42.00;;
40793;SDS011;26502;51.886;15.604;2024-01-15T23:05:58;111.10;;;41.70;;
40793;SDS011;26502;51.886;15.604;2024-01-15T23:11:24;62.20;;;24.50;;
40793;SDS011;26502;51.886;15.604;2024-01-15T23:16:50;62.00;;;25.00;;
40793;SDS011;26502;51.886;15.604;2024-01-15T23:22:16;69.20;;;29.40;;
40793;SDS011;26502;51.886;15.604;2024-01-15T23:27:42;64.80;;;25.80;;
40793;SDS011;26502;51.886;15.604;2024-01-15T23:33:08;32.60;;;12.70;;
40793;SDS011;26502;51.886;15.604;2024-01-15T23:38:37;22.00;;;10.10;;
40793;SDS011;26502;51.886;15.604;2024-01-15T23:44:03;22.60;;;7.10;;
40793;SDS011;26502;51.886;15.604;2024-01-15T23:49:29;29.90;;;11.80;;
40793;SDS011;26502;51.886;15.604;2024-01-15T23:54:55;32.00;;;13.90;;
